Time;durP1;ratioP1;P1;durP2;ratioP2;P2;SDS_P1;SDS_P2;PMS_P1;PMS_P2;Temp;Humidity;BMP_temperature;BMP_pressure;BME280_temperature;BME280_humidity;BME280_pressure;Samples;Min_cycle;Max_cycle;Signal;HPM_P1;HPM_P2
2021/10/03 00:00:17;;;;;;;3.63;1.23;;;;;;;17.39;100.00;99423.41;5092344;28;20040;-60
2021/10/03 00:02:46;;;;;;;1.00;0.70;;;;;;;17.41;100.00;99411.22;5091967;28;20161;-60
2021/10/03 00:05:13;;;;;;;2.03;1.17;;;;;;;17.44;100.00;99426.09;5092027;28;20024;-60
2021/10/03 00:07:41;;;;;;;1.40;0.80;;;;;;;17.31;100.00;99412.09;5091383;28;20059;-60
2021/10/03 00:10:09;;;;;;;3.13;0.90;;;;;;;17.36;100.00;99418.56;5031119;28;1222118;-60
2021/10/03 00:12:35;;;;;;;1.50;0.90;;;;;;;17.32;100.00;99411.00;5092820;28;20113;-60
2021/10/03 00:15:01;;;;;;;1.25;0.80;;;;;;;17.26;100.00;99422.88;5074700;28;20048;-60
2021/10/03 00:17:26;;;;;;;2.42;0.98;;;;;;;17.22;100.00;99412.94;5092148;28;20524;-59
2021/10/03 00:19:52;;;;;;;1.83;0.95;;;;;;;17.15;100.00;99413.22;5074602;28;20182;-60
2021/10/03 00:22:17;;;;;;;1.55;0.90;;;;;;;17.20;100.00;99405.91;5092376;28;20078;-60
2021/10/03 00:24:43;;;;;;;0.65;0.50;;;;;;;17.17;100.00;99411.84;5092254;28;20058;-59
2021/10/03 00:27:08;;;;;;;3.40;0.88;;;;;;;17.25;100.00;99418.56;5074560;28;20154;-60
2021/10/03 00:29:34;;;;;;;1.95;0.73;;;;;;;17.26;100.00;99409.38;5092398;28;20079;-60
2021/10/03 00:32:03;;;;;;;3.25;1.17;;;;;;;17.28;100.00;99423.41;5092294;28;20040;-60
2021/10/03 00:34:29;;;;;;;3.77;1.00;;;;;;;17.25;100.00;99420.47;5073931;28;20476;-60
2021/10/03 00:36:55;;;;;;;;;;;;;;;17.32;100.00;99421.81;5092903;28;20036;-60
2021/10/03 00:39:20;;;;;;;1.20;0.80;;;;;;;17.35;100.00;99415.03;5092434;28;19916;-59
2021/10/03 00:41:46;;;;;;;2.97;0.80;;;;;;;17.36;100.00;99415.84;5092257;28;20099;-59
2021/10/03 00:44:13;;;;;;;1.85;0.90;;;;;;;17.39;100.00;99421.50;5092535;28;20303;-60
2021/10/03 00:46:40;;;;;;;1.37;0.80;;;;;;;17.40;100.00;99414.22;5092140;28;20036;-59
2021/10/03 00:49:06;;;;;;;0.90;0.70;;;;;;;17.37;100.00;99412.84;5092549;28;20059;-60
2021/10/03 00:51:32;;;;;;;3.30;0.95;;;;;;;17.30;100.00;99407.78;5091912;28;20028;-58
2021/10/03 00:53:57;;;;;;;0.90;0.60;;;;;;;17.32;100.00;99402.91;5092052;28;20119;-60
2021/10/03 00:56:23;;;;;;;1.95;0.70;;;;;;;17.30;100.00;99412.34;5074340;28;20383;-60
2021/10/03 00:58:49;;;;;;;0.77;0.70;;;;;;;17.26;100.00;99406.69;5061119;28;20040;-63
2021/10/03 01:01:14;;;;;;;1.40;0.90;;;;;;;17.23;100.00;99401.81;5096006;28;20077;-60
2021/10/03 01:03:42;;;;;;;1.58;0.88;;;;;;;17.24;100.00;99413.47;5095713;28;20040;-59
2021/10/03 01:06:08;;;;;;;1.00;0.80;;;;;;;17.21;100.00;99406.69;5095727;28;20058;-59
2021/10/03 01:08:35;;;;;;;1.45;1.08;;;;;;;17.23;100.00;99409.94;5095192;28;20036;-59
2021/10/03 01:11:02;;;;;;;0.97;0.90;;;;;;;17.12;100.00;99422.66;5096072;28;20188;-61
2021/10/03 01:13:28;;;;;;;1.57;1.07;;;;;;;17.14;100.00;99406.97;5095565;28;20048;-58
2021/10/03 01:15:54;;;;;;;1.48;1.23;;;;;;;17.09;100.00;99419.72;5095269;28;20098;-59
2021/10/03 01:18:20;;;;;;;;;;;;;;;17.00;100.00;99411.34;5096019;28;20114;-59
2021/10/03 01:20:46;;;;;;;1.57;1.10;;;;;;;17.00;100.00;99409.44;5095029;28;20376;-59
2021/10/03 01:23:13;;;;;;;1.00;0.90;;;;;;;17.03;100.00;99421.63;5095311;28;20025;-60
2021/10/03 01:25:42;;;;;;;1.90;1.50;;;;;;;16.92;100.00;99415.38;5095246;28;20460;-60
2021/10/03 01:28:08;;;;;;;2.80;0.93;;;;;;;16.94;100.00;99410.53;5095305;28;20471;-60
2021/10/03 01:30:36;;;;;;;2.80;1.10;;;;;;;16.94;100.00;99399.72;5094859;28;20072;-58
2021/10/03 01:33:02;;;;;;;1.80;1.20;;;;;;;16.91;100.00;99403.75;5095332;28;20024;-59
2021/10/03 01:35:28;;;;;;;1.60;1.20;;;;;;;16.95;100.00;99393.25;5094973;28;20407;-58
2021/10/03 01:37:54;;;;;;;1.23;1.02;;;;;;;17.92;100.00;99393.16;5095110;28;20040;-59
2021/10/03 01:40:21;;;;;;;3.50;1.92;;;;;;;18.22;100.00;99383.22;5095464;28;20032;-59
2021/10/03 01:42:48;;;;;;;1.60;1.13;;;;;;;16.95;100.00;99389.72;5076748;28;20044;-60
2021/10/03 01:45:17;;;;;;;2.10;1.13;;;;;;;16.92;100.00;99389.19;5077146;28;20127;-59
2021/10/03 01:48:04;;;;;;;3.77;1.30;;;;;;;16.93;100.00;99376.50;5094562;28;20020;-59
2021/10/03 01:50:30;;;;;;;;;;;;;;;16.92;100.00;99385.69;5095170;28;20068;-58
2021/10/03 01:52:56;;;;;;;1.37;0.80;;;;;;;16.95;100.00;99371.63;5094918;28;20334;-58
2021/10/03 01:55:21;;;;;;;4.38;1.10;;;;;;;16.91;100.00;99367.88;5095009;28;20032;-58
2021/10/03 01:57:47;;;;;;;2.15;1.00;;;;;;;16.96;100.00;99367.06;5094589;28;20464;-58
2021/10/03 02:00:13;;;;;;;4.85;0.98;;;;;;;16.95;100.00;99389.72;5094982;28;20120;-59
2021/10/03 02:02:38;;;;;;;5.88;1.45;;;;;;;16.97;100.00;99364.06;5094238;28;20075;-60
2021/10/03 02:05:04;;;;;;;1.63;1.10;;;;;;;16.98;100.00;99375.69;5059641;28;20459;-58
2021/10/03 02:07:30;;;;;;;2.10;0.95;;;;;;;16.99;100.00;99377.34;5094551;28;20036;-58
2021/10/03 02:09:57;;;;;;;1.52;0.90;;;;;;;16.98;100.00;99381.09;5092890;28;20123;-59
2021/10/03 02:12:23;;;;;;;2.50;0.87;;;;;;;16.93;100.00;99368.41;5094656;28;20051;-58
2021/10/03 02:14:48;;;;;;;1.17;0.73;;;;;;;17.00;100.00;99382.44;5094062;28;20032;-59
2021/10/03 02:17:14;;;;;;;14.43;1.40;;;;;;;17.00;100.00;99374.34;5094244;28;20097;-58
2021/10/03 02:19:41;;;;;;;8.82;1.20;;;;;;;16.79;100.00;99368.16;5075998;28;20113;-58
2021/10/03 02:22:08;;;;;;;12.23;2.20;;;;;;;16.76;100.00;99366.00;5094180;28;20483;-58
2021/10/03 02:24:34;;;;;;;2.27;0.93;;;;;;;16.84;100.00;99364.63;5094386;28;20052;-58
2021/10/03 02:27:00;;;;;;;;;;;;;;;16.91;100.00;99368.66;5094523;28;20062;-59
2021/10/03 02:29:25;;;;;;;8.43;1.37;;;;;;;16.93;100.00;99360.31;5094219;28;19959;-59
2021/10/03 02:31:51;;;;;;;1.65;1.00;;;;;;;16.89;100.00;99386.25;5093766;28;20033;-58
2021/10/03 02:34:17;;;;;;;2.38;1.45;;;;;;;16.90;100.00;99368.94;5093975;28;20392;-58
2021/10/03 02:36:43;;;;;;;2.00;1.02;;;;;;;17.02;100.00;99366.78;5093985;28;20039;-57
2021/10/03 02:39:08;;;;;;;11.88;3.40;;;;;;;16.95;100.00;99374.34;5075923;28;20029;-57
2021/10/03 02:41:34;;;;;;;21.52;7.03;;;;;;;16.95;100.00;99390.53;5093725;28;20495;-57
2021/10/03 02:44:01;;;;;;;20.95;5.03;;;;;;;16.59;100.00;99380.59;5075965;28;20040;-58
2021/10/03 02:46:27;;;;;;;80.10;7.83;;;;;;;16.38;100.00;99395.19;5093630;28;20092;-58
2021/10/03 02:48:54;;;;;;;19.33;2.07;;;;;;;15.97;100.00;99399.44;5093376;28;20028;-57
2021/10/03 02:51:23;;;;;;;119.83;7.20;;;;;;;15.83;100.00;99395.63;5075658;28;20032;-57
2021/10/03 02:53:50;;;;;;;48.60;3.60;;;;;;;16.49;100.00;99397.59;5075767;28;20424;-58
2021/10/03 02:56:18;;;;;;;23.13;1.97;;;;;;;16.01;100.00;99378.94;5093515;28;20039;-57
2021/10/03 02:58:44;;;;;;;13.90;2.30;;;;;;;15.71;100.00;99379.69;5093275;28;20020;-56
2021/10/03 03:01:11;;;;;;;43.20;3.72;;;;;;;15.53;100.00;99410.59;5093359;28;20036;-57
2021/10/03 03:03:36;;;;;;;50.67;4.07;;;;;;;15.47;100.00;99405.19;5093521;28;20060;-57
2021/10/03 03:06:07;;;;;;;23.75;4.25;;;;;;;15.58;100.00;99414.13;5093187;28;20109;-57
2021/10/03 03:08:33;;;;;;;14.60;3.13;;;;;;;16.74;100.00;99398.66;5074706;28;20035;-58
2021/10/03 03:10:59;;;;;;;16.05;3.88;;;;;;;15.75;100.00;99421.19;5091903;28;20063;-57
2021/10/03 03:13:24;;;;;;;18.00;4.63;;;;;;;15.61;100.00;99432.47;5081929;28;20412;-57
2021/10/03 03:15:50;;;;;;;12.65;4.18;;;;;;;15.55;100.00;99428.13;5072844;28;20040;-55
2021/10/03 03:18:15;;;;;;;38.03;6.40;;;;;;;15.59;100.00;99418.44;5072824;28;20049;-56
2021/10/03 03:20:41;;;;;;;62.22;10.73;;;;;;;15.68;100.00;99428.69;5089736;28;20032;-56
2021/10/03 03:23:07;;;;;;;85.32;20.17;;;;;;;15.70;100.00;99429.28;5075184;28;20437;-57
2021/10/03 03:25:32;;;;;;;100.43;21.52;;;;;;;15.66;100.00;99433.56;5093054;28;20034;-56
2021/10/03 03:27:58;;;;;;;104.00;22.27;;;;;;;15.84;100.00;99430.38;5075009;28;20044;-56
2021/10/03 03:30:23;;;;;;;35.47;6.50;;;;;;;15.74;100.00;99441.16;5093374;28;20081;-57
2021/10/03 03:32:49;;;;;;;38.50;7.88;;;;;;;15.38;100.00;99449.06;5093069;28;20063;-55
2021/10/03 03:35:15;;;;;;;76.75;17.83;;;;;;;15.37;100.00;99459.03;5088923;28;20449;-55
2021/10/03 03:37:41;;;;;;;99.15;18.33;;;;;;;15.35;100.00;99466.56;5076933;28;20055;-56
2021/10/03 03:40:09;;;;;;;111.32;24.10;;;;;;;15.24;100.00;99457.63;5092336;28;20097;-57
2021/10/03 03:42:34;;;;;;;70.00;15.77;;;;;;;15.08;100.00;99472.84;5074795;28;20127;-57
2021/10/03 03:45:00;;;;;;;91.60;20.13;;;;;;;14.96;100.00;99453.38;5093054;28;20257;-57
2021/10/03 03:47:25;;;;;;;125.93;22.67;;;;;;;15.16;100.00;99458.09;5092603;28;20131;-57
2021/10/03 03:49:51;;;;;;;91.57;18.17;;;;;;;16.22;100.00;99445.63;5093092;28;20032;-55
2021/10/03 03:52:19;;;;;;;34.33;6.33;;;;;;;15.01;100.00;99437.28;5093605;28;20392;-58
2021/10/03 03:54:45;;;;;;;35.27;8.20;;;;;;;14.89;100.00;99445.53;5074342;28;20756;-56
2021/10/03 03:57:11;;;;;;;48.17;9.07;;;;;;;14.67;100.00;99451.78;5093056;28;20271;-56
2021/10/03 03:59:37;;;;;;;37.78;6.90;;;;;;;14.68;100.00;99447.25;5092726;28;20093;-57
2021/10/03 04:02:02;;;;;;;21.30;3.63;;;;;;;14.62;100.00;99446.38;5092414;28;20040;-56
2021/10/03 04:04:28;;;;;;;11.50;2.60;;;;;;;14.71;100.00;99455.63;5093368;28;20081;-58
2021/10/03 04:06:54;;;;;;;4.50;1.75;;;;;;;14.81;100.00;99454.88;5092225;28;20044;-59
2021/10/03 04:09:19;;;;;;;5.78;1.55;;;;;;;14.87;100.00;99456.53;5057971;28;20048;-58
2021/10/03 04:11:45;;;;;;;5.27;1.40;;;;;;;14.78;100.00;99447.34;5093118;28;20067;-55
2021/10/03 04:14:10;;;;;;;7.72;1.45;;;;;;;14.77;100.00;99448.41;5092359;28;20310;-56
2021/10/03 04:16:36;;;;;;;13.43;2.23;;;;;;;14.81;100.00;99449.50;5092692;28;20056;-55
2021/10/03 04:19:02;;;;;;;9.10;1.70;;;;;;;14.84;100.00;99450.88;5074415;28;20268;-56
2021/10/03 04:21:27;;;;;;;3.90;1.33;;;;;;;14.81;100.00;99456.78;5092461;28;20074;-56
2021/10/03 04:23:53;;;;;;;8.68;1.40;;;;;;;14.73;100.00;99460.75;5092710;28;20032;-57
2021/10/03 04:26:19;;;;;;;3.35;1.30;;;;;;;14.56;100.00;99450.09;5092615;28;20126;-55
2021/10/03 04:28:45;;;;;;;6.83;1.30;;;;;;;14.59;100.00;99457.66;5092378;28;20123;-57
2021/10/03 04:31:11;;;;;;;3.60;1.50;;;;;;;14.58;100.00;99464.09;5092104;28;20300;-58
2021/10/03 04:33:41;;;;;;;11.20;1.75;;;;;;;14.58;100.00;99464.09;5095913;28;20048;-55
2021/10/03 04:36:10;;;;;;;9.93;1.47;;;;;;;14.67;100.00;99462.56;5078447;28;20036;-58
2021/10/03 04:38:37;;;;;;;7.27;1.30;;;;;;;14.56;100.00;99466.25;5096090;28;20724;-57
2021/10/03 04:41:03;;;;;;;11.50;2.57;;;;;;;14.55;100.00;99459.25;5077849;28;20284;-57
2021/10/03 04:43:29;;;;;;;5.85;1.60;;;;;;;14.58;100.00;99458.72;5096309;28;20265;-56
2021/10/03 04:45:54;;;;;;;12.65;2.42;;;;;;;14.69;100.00;99449.66;5095875;28;20412;-57
2021/10/03 04:48:20;;;;;;;10.52;1.70;;;;;;;14.67;100.00;99451.00;5096365;28;20100;-57
2021/10/03 04:50:46;;;;;;;5.97;1.57;;;;;;;14.59;100.00;99453.06;5077935;28;20047;-58
2021/10/03 04:53:12;;;;;;;8.85;2.40;;;;;;;14.56;100.00;99445.53;5096286;28;20377;-58
2021/10/03 04:55:37;;;;;;;6.75;1.58;;;;;;;14.59;100.00;99449.59;5078395;28;20488;-57
2021/10/03 04:58:02;;;;;;;9.00;2.23;;;;;;;14.54;100.00;99450.34;5095475;28;20511;-59
2021/10/03 05:00:28;;;;;;;16.83;2.13;;;;;;;14.63;100.00;99456.88;5095761;28;20390;-58
2021/10/03 05:02:54;;;;;;;8.48;2.88;;;;;;;14.71;100.00;99454.81;5077441;28;20047;-58
2021/10/03 05:05:21;;;;;;;12.30;3.25;;;;;;;14.62;100.00;99447.19;5095793;28;20047;-59
2021/10/03 05:07:46;;;;;;;17.13;2.87;;;;;;;14.67;100.00;99424.09;5095591;28;20483;-57
2021/10/03 05:10:12;;;;;;;5.30;2.50;;;;;;;14.67;100.00;99432.97;5095089;28;20327;-58
2021/10/03 05:12:38;;;;;;;10.13;2.47;;;;;;;14.72;100.00;99430.34;5095552;28;20039;-57
2021/10/03 05:15:04;;;;;;;10.00;2.78;;;;;;;14.74;100.00;99444.34;5095002;28;20040;-57
2021/10/03 05:17:30;;;;;;;;;;;;;;;16.13;100.00;99435.34;5096195;28;20072;-57
2021/10/03 05:19:56;;;;;;;13.23;3.07;;;;;;;14.93;100.00;99437.75;5095325;28;19916;-57
2021/10/03 05:22:24;;;;;;;12.35;3.63;;;;;;;14.72;100.00;99449.16;5077582;28;20609;-58
2021/10/03 05:24:51;;;;;;;16.73;3.17;;;;;;;14.63;100.00;99450.69;5095212;28;20063;-57
2021/10/03 05:27:17;;;;;;;13.57;3.07;;;;;;;14.61;100.00;99456.31;5094867;28;20393;-58
2021/10/03 05:29:42;;;;;;;39.05;5.93;;;;;;;14.54;100.00;99452.25;5095083;28;20294;-57
2021/10/03 05:32:08;;;;;;;15.85;4.18;;;;;;;14.57;100.00;99451.72;5094863;28;20040;-58
2021/10/03 05:34:33;;;;;;;17.55;4.70;;;;;;;14.56;100.00;99453.59;5077476;28;20040;-58
2021/10/03 05:36:59;;;;;;;17.23;4.00;;;;;;;14.61;100.00;99452.81;5076676;28;20135;-59
2021/10/03 05:39:24;;;;;;;20.73;5.30;;;;;;;16.03;100.00;99430.75;5077055;28;20325;-58
2021/10/03 05:41:50;;;;;;;18.33;4.75;;;;;;;15.84;100.00;99429.59;5094985;28;20083;-59
2021/10/03 05:44:15;;;;;;;17.43;5.20;;;;;;;14.70;100.00;99448.59;5094566;28;20119;-56
2021/10/03 05:46:41;;;;;;;17.40;5.37;;;;;;;14.57;100.00;99436.38;5094735;28;20044;-57
2021/10/03 05:49:06;;;;;;;17.10;6.05;;;;;;;14.67;100.00;99453.69;5076443;28;20257;-59
2021/10/03 05:51:33;;;;;;;20.08;5.70;;;;;;;14.80;100.00;99457.84;5094933;28;20046;-58
2021/10/03 05:53:59;;;;;;;45.77;6.57;;;;;;;14.68;100.00;99460.69;5094482;28;20035;-57
2021/10/03 05:56:24;;;;;;;26.67;8.20;;;;;;;14.90;100.00;99422.94;5076646;28;20284;-57
2021/10/03 05:58:49;;;;;;;38.37;7.47;;;;;;;14.90;100.00;99429.13;5094665;28;20078;-58
2021/10/03 06:01:15;;;;;;;44.87;9.07;;;;;;;14.94;100.00;99453.63;5059816;28;20300;-57
2021/10/03 06:03:40;;;;;;;26.87;7.33;;;;;;;14.74;100.00;99441.66;5094785;28;20258;-58
2021/10/03 06:06:06;;;;;;;18.98;7.30;;;;;;;14.79;100.00;99432.00;5076095;28;20036;-57
2021/10/03 06:08:32;;;;;;;25.05;7.13;;;;;;;14.87;100.00;99437.72;5094617;28;20357;-58
2021/10/03 06:10:57;;;;;;;14.67;6.60;;;;;;;14.90;100.00;99447.97;5094853;28;20442;-58
2021/10/03 06:13:22;;;;;;;20.43;7.33;;;;;;;14.81;100.00;99446.81;5094269;28;20268;-57
2021/10/03 06:15:48;;;;;;;17.85;7.05;;;;;;;14.85;100.00;99457.88;5094786;28;20044;-58
2021/10/03 06:18:14;;;;;;;27.40;7.90;;;;;;;14.75;100.00;99464.78;5093733;28;20455;-58
2021/10/03 06:20:40;;;;;;;17.45;7.30;;;;;;;14.71;100.00;99469.06;5094225;28;20261;-60
2021/10/03 06:23:07;;;;;;;73.97;10.13;;;;;;;14.85;100.00;99476.72;5076111;28;20047;-58
2021/10/03 06:25:33;;;;;;;28.58;8.18;;;;;;;14.94;100.00;99477.06;5094288;28;20361;-58
2021/10/03 06:27:58;;;;;;;66.95;10.45;;;;;;;14.98;100.00;99473.59;5093762;28;20064;-57
2021/10/03 06:30:24;;;;;;;39.03;9.18;;;;;;;14.99;100.00;99475.22;5075404;28;20112;-58
2021/10/03 06:32:50;;;;;;;68.85;11.05;;;;;;;14.98;100.00;99478.97;5093680;28;20044;-57
2021/10/03 06:35:16;;;;;;;24.40;7.63;;;;;;;15.00;100.00;99487.63;5093834;28;20032;-60
2021/10/03 06:37:42;;;;;;;19.88;8.07;;;;;;;15.01;100.00;99483.84;5093723;28;20284;-58
2021/10/03 06:40:08;;;;;;;31.65;9.07;;;;;;;15.06;100.00;99488.44;5093537;28;20032;-56
2021/10/03 06:42:34;;;;;;;56.30;10.15;;;;;;;15.75;100.00;99485.88;5093981;28;20044;-58
2021/10/03 06:45:00;;;;;;;30.63;9.23;;;;;;;15.19;100.00;99479.09;5093647;28;20042;-58
2021/10/03 06:47:25;;;;;;;21.88;7.65;;;;;;;15.11;100.00;99485.00;5093503;28;20067;-59
2021/10/03 06:49:51;;;;;;;22.92;8.35;;;;;;;15.08;100.00;99489.00;5093577;28;20044;-60
2021/10/03 06:52:16;;;;;;;18.45;7.82;;;;;;;15.11;100.00;99503.84;5093571;28;20039;-59
2021/10/03 06:54:42;;;;;;;39.97;10.15;;;;;;;15.06;100.00;99501.91;5093584;28;20090;-57
2021/10/03 06:57:08;;;;;;;17.75;5.95;;;;;;;15.23;100.00;99498.25;5093483;28;20040;-63
2021/10/03 06:59:33;;;;;;;24.52;6.32;;;;;;;16.35;100.00;99469.34;5093840;28;20032;-59
2021/10/03 07:02:03;;;;;;;20.05;6.65;;;;;;;15.38;100.00;99498.38;5093954;28;20380;-58
2021/10/03 07:04:31;;;;;;;22.13;4.70;;;;;;;15.04;100.00;99504.88;5093150;28;20373;-57
2021/10/03 07:07:00;;;;;;;20.83;5.10;;;;;;;14.96;100.00;99518.00;5075590;28;20300;-59
2021/10/03 07:09:26;;;;;;;21.43;3.90;;;;;;;14.69;100.00;99514.25;5092893;28;20337;-58
2021/10/03 07:11:52;;;;;;;12.43;2.35;;;;;;;14.66;100.00;99536.28;5093161;28;20363;-59
2021/10/03 07:14:17;;;;;;;9.75;2.55;;;;;;;14.70;100.00;99520.44;5092935;28;20127;-58
2021/10/03 07:16:43;;;;;;;5.22;1.92;;;;;;;14.61;100.00;99517.41;5075117;28;20541;-57
2021/10/03 07:19:08;;;;;;;26.53;3.27;;;;;;;14.77;100.00;99511.13;5074803;28;20143;-57
2021/10/03 07:21:34;;;;;;;7.35;1.80;;;;;;;14.33;100.00;99517.38;5093140;28;20269;-57
2021/10/03 07:24:00;;;;;;;8.80;1.77;;;;;;;14.38;100.00;99524.72;5093087;28;20501;-57
2021/10/03 07:26:26;;;;;;;5.50;1.67;;;;;;;14.37;100.00;99525.78;5092862;28;20123;-59
2021/10/03 07:28:51;;;;;;;9.98;2.55;;;;;;;14.46;100.00;99518.06;5093321;28;20109;-57
2021/10/03 07:31:19;;;;;;;8.95;2.20;;;;;;;14.37;100.00;99528.47;5092515;28;20115;-57
2021/10/03 07:33:45;;;;;;;24.87;2.97;;;;;;;14.27;100.00;99533.72;5093185;28;20054;-57
2021/10/03 07:36:10;;;;;;;8.35;2.70;;;;;;;14.37;100.00;99530.31;5074882;28;20261;-57
2021/10/03 07:38:37;;;;;;;11.15;2.85;;;;;;;14.24;100.00;99531.53;5093113;28;20043;-58
2021/10/03 07:41:02;;;;;;;;;;;;;;;14.16;100.00;99539.00;5089684;28;20061;-57
2021/10/03 07:43:28;;;;;;;10.67;2.50;;;;;;;14.23;100.00;99543.34;5092286;28;19919;-58
2021/10/03 07:45:53;;;;;;;10.43;2.03;;;;;;;14.29;100.00;99542.34;5073700;28;20032;-59
2021/10/03 07:48:19;;;;;;;19.20;3.40;;;;;;;15.36;100.00;99537.41;5080756;28;20028;-58
2021/10/03 07:50:45;;;;;;;10.35;3.03;;;;;;;15.78;100.00;99533.88;5080403;28;20048;-58
2021/10/03 07:53:10;;;;;;;9.15;3.10;;;;;;;14.62;100.00;99546.72;5080524;28;20039;-57
2021/10/03 07:55:36;;;;;;;17.67;3.90;;;;;;;14.51;100.00;99546.88;5081885;28;20039;-56
2021/10/03 07:58:06;;;;;;;8.75;3.33;;;;;;;14.47;100.00;99544.69;5063797;28;20668;-57
2021/10/03 08:00:34;;;;;;;11.17;3.73;;;;;;;14.47;100.00;99555.44;5080119;28;20024;-59
2021/10/03 08:03:00;;;;;;;14.80;3.77;;;;;;;14.38;100.00;99548.09;5065917;28;20272;-58
2021/10/03 08:05:27;;;;;;;9.43;3.72;;;;;;;14.72;100.00;99550.63;5081833;28;20276;-56
2021/10/03 08:07:52;;;;;;;12.55;3.58;;;;;;;14.41;100.00;99551.09;5085175;28;20105;-56
2021/10/03 08:10:18;;;;;;;7.57;2.63;;;;;;;14.25;100.00;99547.44;5085413;28;20464;-59
2021/10/03 08:12:46;;;;;;;8.43;2.70;;;;;;;14.31;100.00;99554.47;5087577;28;20036;-58
2021/10/03 08:15:12;;;;;;;48.30;4.30;;;;;;;14.36;100.00;99555.59;5084660;28;20036;-57
2021/10/03 08:17:37;;;;;;;7.28;3.15;;;;;;;14.39;100.00;99553.22;5087284;28;20272;-59
2021/10/03 08:20:04;;;;;;;6.28;2.05;;;;;;;14.38;100.00;99566.91;5068059;28;20435;-56
2021/10/03 08:22:29;;;;;;;7.90;2.30;;;;;;;14.44;100.00;99566.72;5069845;28;20111;-56
2021/10/03 08:24:55;;;;;;;7.60;2.67;;;;;;;14.24;100.00;99563.78;5085369;28;20378;-56
2021/10/03 08:27:20;;;;;;;8.03;2.53;;;;;;;14.19;100.00;99570.75;5083803;28;20768;-56
2021/10/03 08:29:46;;;;;;;7.18;2.40;;;;;;;14.23;100.00;99570.25;5069311;28;20039;-58
2021/10/03 08:32:12;;;;;;;12.33;2.20;;;;;;;14.26;100.00;99564.34;5087406;28;20104;-58
2021/10/03 08:34:37;;;;;;;8.75;2.47;;;;;;;14.35;100.00;99573.63;5085719;28;20342;-58
2021/10/03 08:37:03;;;;;;;13.82;3.00;;;;;;;14.32;100.00;99569.56;5085629;28;20043;-57
2021/10/03 08:39:29;;;;;;;9.60;2.92;;;;;;;14.15;100.00;99575.00;5086459;28;20048;-56
2021/10/03 08:41:54;;;;;;;13.50;2.80;;;;;;;14.22;100.00;99569.44;5086815;28;20031;-58
2021/10/03 08:44:20;;;;;;;23.55;3.92;;;;;;;14.30;100.00;99577.06;5085800;28;20043;-58
2021/10/03 08:46:47;;;;;;;10.13;3.77;;;;;;;14.30;100.00;99582.44;5085688;28;20060;-56
2021/10/03 08:49:13;;;;;;;6.07;3.00;;;;;;;14.27;100.00;99576.75;5087776;28;20087;-57
2021/10/03 08:51:38;;;;;;;40.05;5.53;;;;;;;14.32;100.00;99577.63;5086891;28;20304;-59
2021/10/03 08:54:04;;;;;;;9.75;3.55;;;;;;;14.25;100.00;99584.25;5086744;28;20483;-56
2021/10/03 08:56:30;;;;;;;7.85;2.97;;;;;;;14.26;100.00;99580.50;5085846;28;20036;-58
2021/10/03 08:58:55;;;;;;;9.02;3.13;;;;;;;14.36;100.00;99587.88;5084651;28;20052;-57
2021/10/03 09:01:22;;;;;;;11.40;3.47;;;;;;;14.46;100.00;99577.25;5084941;28;20043;-56
2021/10/03 09:03:48;;;;;;;9.87;3.70;;;;;;;14.51;100.00;99582.66;5086260;28;20963;-58
2021/10/03 09:06:13;;;;;;;12.82;2.63;;;;;;;15.57;100.00;99576.03;5091550;28;20297;-58
2021/10/03 09:08:42;;;;;;;23.52;2.90;;;;;;;14.61;100.00;99582.75;5085615;28;20464;-56
2021/10/03 09:11:12;;;;;;;16.00;3.10;;;;;;;14.58;100.00;99582.47;5085929;28;20033;-57
2021/10/03 09:13:39;;;;;;;4.30;2.00;;;;;;;14.61;100.00;99584.66;5065795;28;20269;-58
2021/10/03 09:16:33;;;;;;;5.13;2.23;;;;;;;14.60;100.00;99588.41;5067159;28;20321;-58
2021/10/03 09:19:02;;;;;;;10.47;2.70;;;;;;;14.88;100.00;99581.19;5083935;28;20419;-58
2021/10/03 09:21:30;;;;;;;9.10;3.57;;;;;;;14.67;100.00;99591.72;5066140;28;20245;-58
2021/10/03 09:24:15;;;;;;;6.33;2.50;;;;;;;14.63;100.00;99598.66;5086114;28;20353;-58
2021/10/03 09:27:03;;;;;;;29.13;3.37;;;;;;;14.65;100.00;99596.53;5084760;28;20265;-57
2021/10/03 09:29:32;;;;;;;40.83;4.60;;;;;;;14.65;100.00;99588.47;5082519;28;20277;-58
2021/10/03 09:32:05;;;;;;;6.37;2.43;;;;;;;14.71;100.00;99592.84;5049360;28;20326;-58
2021/10/03 09:34:31;;;;;;;6.67;2.70;;;;;;;14.77;100.00;99588.34;5064824;28;20754;-57
2021/10/03 09:36:58;;;;;;;8.30;3.40;;;;;;;14.83;100.00;99592.69;5085260;28;20277;-58
2021/10/03 09:39:23;;;;;;;;;;;;;;;14.87;100.00;99593.81;5066415;28;20036;-58
2021/10/03 09:41:49;;;;;;;7.23;3.37;;;;;;;14.90;100.00;99593.34;5083655;28;20363;-58
2021/10/03 09:44:16;;;;;;;4.82;3.08;;;;;;;16.25;100.00;99588.03;5057564;28;20063;-57
2021/10/03 09:46:46;;;;;;;5.53;3.13;;;;;;;16.59;100.00;99580.31;5066831;28;20050;-58
2021/10/03 09:49:12;;;;;;;3.83;2.90;;;;;;;16.75;100.00;99593.84;5084491;28;20029;-59
2021/10/03 09:51:40;;;;;;;7.13;3.30;;;;;;;16.85;100.00;99595.75;5083686;28;20260;-59
2021/10/03 09:54:07;;;;;;;7.63;3.50;;;;;;;16.91;100.00;99595.47;5084260;28;20269;-59
2021/10/03 09:56:34;;;;;;;9.90;3.60;;;;;;;16.91;100.00;99597.38;5083378;28;20500;-59
2021/10/03 09:59:04;;;;;;;7.40;4.30;;;;;;;16.95;100.00;99598.47;5067216;28;20062;-59
2021/10/03 10:01:35;;;;;;;8.30;4.03;;;;;;;16.96;100.00;99608.19;5084656;28;20269;-57
2021/10/03 10:04:05;;;;;;;7.07;4.33;;;;;;;17.05;100.00;99603.88;5083605;28;20032;-58
2021/10/03 10:06:31;;;;;;;12.47;4.93;;;;;;;17.21;100.00;99601.22;5064687;28;20314;-57
2021/10/03 10:08:58;;;;;;;9.38;5.82;;;;;;;17.30;100.00;99605.00;5064243;28;20052;-58
2021/10/03 10:11:33;;;;;;;5.87;3.20;;;;;;;16.08;100.00;99621.41;5060816;28;20366;-57
2021/10/03 10:14:01;;;;;;;4.20;2.73;;;;;;;15.42;100.00;99655.72;5039695;28;20051;-57
2021/10/03 10:16:43;;;;;;;5.47;2.70;;;;;;;15.15;100.00;99661.94;5072197;28;20115;-56
2021/10/03 10:19:34;;;;;;;5.17;3.00;;;;;;;15.08;100.00;99647.84;5055350;28;20047;-58
2021/10/03 10:22:11;;;;;;;4.30;3.30;;;;;;;15.06;100.00;99655.38;5073965;28;20040;-59
2021/10/03 10:24:43;;;;;;;14.33;4.23;;;;;;;15.10;100.00;99655.69;5073458;28;20035;-57
2021/10/03 10:27:29;;;;;;;18.23;6.60;;;;;;;15.20;100.00;99653.06;5073436;28;20037;-58
2021/10/03 10:30:03;;;;;;;18.43;6.20;;;;;;;15.26;100.00;99656.63;5061400;28;20040;-58
2021/10/03 10:32:50;;;;;;;6.33;3.53;;;;;;;15.31;100.00;99643.22;5093394;28;20164;-58
2021/10/03 10:35:19;;;;;;;8.20;3.40;;;;;;;15.31;100.00;99640.50;5093720;28;20040;-58
2021/10/03 10:37:56;;;;;;;8.00;4.53;;;;;;;15.34;100.00;99648.91;5093440;28;20118;-59
2021/10/03 10:40:22;;;;;;;8.00;4.30;;;;;;;15.38;100.00;99645.69;5093738;28;20036;-57
2021/10/03 10:42:56;;;;;;;7.25;3.63;;;;;;;15.89;100.00;99637.22;5093445;28;20024;-58
2021/10/03 10:45:28;;;;;;;8.60;3.73;;;;;;;16.86;100.00;99638.69;5093471;28;20131;-58
2021/10/03 10:48:09;;;;;;;7.70;3.57;;;;;;;17.09;100.00;99641.97;5092462;28;20166;-58
2021/10/03 10:50:36;;;;;;;12.53;3.83;;;;;;;16.23;100.00;99630.66;5093093;28;20452;-59
2021/10/03 10:53:22;;;;;;;9.53;3.70;;;;;;;15.62;100.00;99646.97;5093540;28;20024;-59
2021/10/03 10:56:06;;;;;;;10.75;3.47;;;;;;;17.03;100.00;99641.16;5092063;28;20134;-59
2021/10/03 10:58:37;;;;;;;6.57;3.70;;;;;;;17.11;100.00;99642.53;5093848;28;20036;-58
2021/10/03 11:01:07;;;;;;;9.30;4.10;;;;;;;17.04;100.00;99645.47;5091659;28;20094;-58
2021/10/03 11:03:41;;;;;;;5.50;3.53;;;;;;;17.08;100.00;99650.38;5093264;28;20062;-59
2021/10/03 11:06:24;;;;;;;10.47;3.20;;;;;;;16.98;100.00;99657.38;5093260;28;20040;-59
2021/10/03 11:09:07;;;;;;;12.23;3.03;;;;;;;16.96;100.00;99661.41;5091265;28;20432;-58
2021/10/03 11:11:35;;;;;;;6.77;3.27;;;;;;;16.99;100.00;99663.59;5069126;28;20061;-57
2021/10/03 11:14:16;;;;;;;9.50;4.20;;;;;;;17.08;100.00;99658.47;5072980;28;20037;-58
2021/10/03 11:16:44;;;;;;;12.20;5.33;;;;;;;15.96;100.00;99658.56;5071950;28;20093;-58
2021/10/03 11:19:16;;;;;;;8.00;4.53;;;;;;;16.11;100.00;99672.09;5072830;28;20115;-59
2021/10/03 11:21:48;;;;;;;7.27;4.33;;;;;;;16.70;100.00;99669.41;5074669;28;20040;-59